Time;durP1;ratioP1;P1;durP2;ratioP2;P2;SDS_P1;SDS_P2;PMS_P1;PMS_P2;Temp;Humidity;BMP_temperature;BMP_pressure;BME280_temperature;BME280_humidity;BME280_pressure;Samples;Min_cycle;Max_cycle;Signal;HPM_P1;HPM_P2
2022/01/22 06:58:48;;;;;;;27.45;18.58;;;2.30;84.20;;;;;;5022766;28;20489;-95
2022/01/22 07:01:15;;;;;;;31.92;22.15;;;2.40;83.00;;;;;;5019009;28;20076;-95
2022/01/22 07:03:41;;;;;;;50.60;31.52;;;2.30;83.40;;;;;;5021257;28;20072;-96
2022/01/22 07:06:07;;;;;;;46.63;30.65;;;2.10;84.00;;;;;;5011552;28;20464;-95
2022/01/22 07:08:33;;;;;;;105.45;42.08;;;1.80;85.40;;;;;;5018813;28;20052;-96
2022/01/22 07:10:59;;;;;;;74.78;37.22;;;1.70;85.60;;;;;;5015108;28;20596;-96
2022/01/22 07:13:24;;;;;;;35.58;23.27;;;1.70;86.40;;;;;;5013781;28;20132;-96
2022/01/22 07:15:50;;;;;;;30.40;19.58;;;1.50;88.20;;;;;;5019808;28;20045;-96
2022/01/22 07:18:16;;;;;;;94.22;36.63;;;1.80;87.40;;;;;;5020674;28;20037;-96
2022/01/22 07:20:45;;;;;;;60.45;34.80;;;1.70;86.40;;;;;;5019312;28;20159;-95
2022/01/22 07:23:31;;;;;;;47.35;29.80;;;1.50;88.50;;;;;;5018631;28;20037;-96
2022/01/22 07:25:57;;;;;;;33.97;22.40;;;1.50;89.60;;;;;;5016138;28;20038;-93
2022/01/22 07:28:28;;;;;;;212.70;46.78;;;1.60;88.90;;;;;;5017887;28;20301;-96
2022/01/22 07:30:54;;;;;;;47.63;29.92;;;1.60;87.20;;;;;;5020867;28;20042;-96
2022/01/22 07:33:20;;;;;;;64.95;35.63;;;1.50;90.00;;;;;;5019479;28;20048;-96
2022/01/22 07:35:51;;;;;;;73.43;33.85;;;1.30;90.10;;;;;;5019466;28;20041;-93
2022/01/22 07:38:27;;;;;;;69.60;34.90;;;1.30;90.10;;;;;;5019119;28;20093;-96
2022/01/22 07:40:53;;;;;;;42.08;26.50;;;1.30;90.50;;;;;;5018877;28;20458;-95
2022/01/22 07:43:22;;;;;;;69.68;33.95;;;1.20;90.80;;;;;;5037397;28;20037;-96
2022/01/22 07:45:48;;;;;;;83.40;35.95;;;1.30;90.70;;;;;;5020502;28;20033;-96
2022/01/22 07:48:13;;;;;;;48.75;28.13;;;1.40;90.50;;;;;;5019706;28;20037;-96
2022/01/22 07:50:39;;;;;;;68.82;36.55;;;1.40;90.80;;;;;;5020755;28;20037;-95
2022/01/22 07:53:05;;;;;;;35.15;21.10;;;1.50;90.30;;;;;;5020176;28;20064;-96
2022/01/22 07:55:31;;;;;;;52.45;31.35;;;1.60;90.90;;;;;;5016423;28;20120;-96
2022/01/22 07:57:57;;;;;;;54.40;32.50;;;1.80;90.00;;;;;;5042412;28;20139;-95
2022/01/22 08:00:30;;;;;;;49.13;30.30;;;1.80;89.80;;;;;;5024247;28;20042;-96
2022/01/22 08:02:56;;;;;;;65.88;37.60;;;1.80;89.90;;;;;;5020725;28;20088;-96
2022/01/22 08:05:22;;;;;;;84.18;38.85;;;1.60;90.00;;;;;;5020926;28;20042;-96
2022/01/22 08:07:49;;;;;;;86.20;38.97;;;1.50;90.20;;;;;;5004718;28;20065;-95
2022/01/22 08:10:16;;;;;;;54.97;30.83;;;1.40;90.60;;;;;;5019788;28;20026;-94
2022/01/22 08:12:49;;;;;;;70.70;34.20;;;1.30;90.90;;;;;;5016411;28;20037;-95
2022/01/22 08:15:18;;;;;;;134.25;41.63;;;1.40;90.80;;;;;;5024275;28;20030;-95
2022/01/22 08:17:45;;;;;;;49.38;29.23;;;1.30;90.90;;;;;;5023811;28;20041;-94
2022/01/22 08:20:16;;;;;;;68.95;34.17;;;1.30;91.30;;;;;;5024732;28;20077;-95
2022/01/22 08:22:45;;;;;;;40.45;24.35;;;1.30;91.30;;;;;;5017390;28;20045;-96
2022/01/22 08:25:14;;;;;;;52.05;30.67;;;1.50;91.30;;;;;;5004860;28;20033;-96
2022/01/22 08:30:33;;;;;;;71.47;38.20;;;1.80;90.80;;;;;;5050762;28;20028;-95
2022/01/22 08:35:53;;;;;;;59.95;34.50;;;1.90;90.50;;;;;;5047905;28;20047;-95
2022/01/22 08:38:27;;;;;;;58.47;34.45;;;2.10;90.10;;;;;;5043653;28;20033;-96
2022/01/22 08:40:56;;;;;;;62.25;35.50;;;2.00;89.90;;;;;;5043671;28;20496;-95
2022/01/22 08:43:23;;;;;;;55.83;33.75;;;2.10;90.00;;;;;;5030798;28;20513;-96
2022/01/22 08:45:50;;;;;;;48.28;28.92;;;2.10;90.00;;;;;;5008175;28;20398;-95
2022/01/22 08:48:25;;;;;;;45.65;26.45;;;2.20;90.00;;;;;;5008224;28;20437;-96
2022/01/22 08:50:55;;;;;;;36.25;22.75;;;2.20;89.90;;;;;;5040755;28;20035;-96
2022/01/22 08:53:20;;;;;;;32.85;20.10;;;2.50;89.30;;;;;;5041570;28;20124;-96
2022/01/22 08:55:46;;;;;;;59.28;35.67;;;2.70;88.20;;;;;;5020215;28;20072;-95
2022/01/22 08:58:16;;;;;;;40.08;24.00;;;2.80;86.90;;;;;;5013366;28;20049;-96
2022/01/22 09:00:45;;;;;;;70.82;39.80;;;2.90;86.90;;;;;;5026248;28;20041;-96
2022/01/22 09:03:18;;;;;;;63.25;35.60;;;2.90;86.40;;;;;;5026804;28;20073;-96
2022/01/22 09:05:44;;;;;;;68.35;39.45;;;2.70;87.50;;;;;;5026292;28;20033;-96
2022/01/22 09:08:14;;;;;;;47.03;26.08;;;2.60;88.20;;;;;;5023624;28;20040;-95
2022/01/22 09:10:47;;;;;;;69.53;39.38;;;2.70;88.30;;;;;;5023228;28;20044;-96
2022/01/22 09:13:13;;;;;;;59.72;33.05;;;2.80;87.80;;;;;;5025880;28;20057;-96
2022/01/22 09:15:39;;;;;;;67.40;37.85;;;2.70;88.50;;;;;;5042166;28;20034;-96
2022/01/22 09:18:06;;;;;;;51.30;29.73;;;2.80;88.40;;;;;;5025710;28;20075;-96
2022/01/22 09:23:07;;;;;;;196.75;119.30;;;3.10;87.90;;;;;;5040490;28;20533;-96
2022/01/22 09:25:33;;;;;;;82.63;47.92;;;3.30;87.30;;;;;;5021249;28;20064;-93
2022/01/22 09:27:59;;;;;;;70.93;39.33;;;3.50;85.60;;;;;;5021864;28;20091;-95
2022/01/22 09:30:25;;;;;;;91.97;48.47;;;3.20;86.40;;;;;;5012071;28;20432;-96
2022/01/22 09:32:51;;;;;;;69.70;36.80;;;3.00;87.00;;;;;;5012554;28;20038;-95
2022/01/22 09:35:17;;;;;;;75.05;40.80;;;3.00;88.20;;;;;;5010141;28;20034;-95
2022/01/22 09:37:43;;;;;;;60.13;32.58;;;3.10;87.70;;;;;;5011203;28;20045;-96
2022/01/22 09:40:12;;;;;;;78.00;39.15;;;3.20;88.20;;;;;;5015417;28;20112;-94
2022/01/22 09:42:39;;;;;;;87.22;45.92;;;3.30;87.20;;;;;;4996487;28;20049;-95
2022/01/22 09:45:07;;;;;;;72.85;37.78;;;3.40;86.80;;;;;;5007992;28;20037;-96
2022/01/22 09:47:33;;;;;;;80.65;42.40;;;3.40;87.30;;;;;;5009485;28;20026;-96
2022/01/22 09:49:59;;;;;;;75.07;38.80;;;3.40;87.20;;;;;;5009126;28;20041;-96
2022/01/22 09:52:25;;;;;;;84.57;45.30;;;3.40;87.70;;;;;;5012912;28;20060;-96
2022/01/22 09:54:52;;;;;;;85.25;43.40;;;3.40;87.70;;;;;;5029749;28;20057;-95
2022/01/22 09:57:18;;;;;;;85.05;43.75;;;3.40;88.00;;;;;;5005540;28;20058;-95
2022/01/22 09:59:44;;;;;;;92.47;47.15;;;3.30;88.10;;;;;;5016145;28;20025;-96
2022/01/22 10:02:20;;;;;;;94.20;47.20;;;3.30;88.40;;;;;;5010067;28;20072;-96
2022/01/22 10:04:52;;;;;;;118.30;53.33;;;3.20;88.50;;;;;;5008605;28;20034;-96
2022/01/22 10:07:21;;;;;;;70.68;37.38;;;3.30;88.50;;;;;;5008854;28;20558;-94
2022/01/22 10:10:09;;;;;;;92.50;46.63;;;3.30;89.20;;;;;;5016368;28;20033;-96
2022/01/22 10:12:47;;;;;;;108.13;52.38;;;3.50;88.00;;;;;;5011518;28;20033;-96
2022/01/22 10:15:18;;;;;;;102.97;53.33;;;3.40;87.80;;;;;;5018822;28;20038;-96
2022/01/22 10:17:50;;;;;;;77.40;38.33;;;3.20;88.40;;;;;;5018038;28;20397;-96
2022/01/22 10:20:22;;;;;;;72.40;37.72;;;3.10;89.70;;;;;;5013930;28;20493;-96
2022/01/22 10:22:54;;;;;;;76.60;38.25;;;3.20;89.50;;;;;;5010453;28;20038;-96
2022/01/22 10:25:24;;;;;;;106.07;52.63;;;3.50;88.90;;;;;;5012864;28;20044;-96
2022/01/22 10:28:01;;;;;;;;;;;3.50;87.80;;;;;;5018584;28;20053;-96
2022/01/22 10:30:43;;;;;;;84.93;41.25;;;3.30;88.70;;;;;;5011269;28;19913;-96
2022/01/22 10:34:04;;;;;;;78.28;39.38;;;3.30;89.10;;;;;;5016970;28;20033;-96
2022/01/22 10:36:59;;;;;;;94.55;48.67;;;3.60;89.00;;;;;;5008124;23;20050;-85
2022/01/22 10:39:26;;;;;;;104.85;52.22;;;3.70;87.40;;;;;;5022976;28;20075;-85
2022/01/22 10:41:53;;;;;;;107.07;56.20;;;3.60;87.70;;;;;;5027985;28;20038;-85
2022/01/22 10:44:46;;;;;;;85.63;43.55;;;3.60;88.20;;;;;;5030455;28;20029;-86
2022/01/22 10:47:25;;;;;;;107.65;53.47;;;3.60;88.60;;;;;;5017751;28;20044;-86
2022/01/22 10:49:51;;;;;;;101.28;51.35;;;3.80;87.70;;;;;;5035744;28;20420;-86
2022/01/22 10:52:17;;;;;;;126.80;63.63;;;4.00;87.20;;;;;;5035753;28;20037;-86
2022/01/22 10:54:46;;;;;;;101.65;53.00;;;4.00;86.10;;;;;;5015989;28;20033;-85
2022/01/22 10:57:13;;;;;;;100.65;50.92;;;4.00;86.70;;;;;;5021486;28;20068;-86
2022/01/22 10:59:48;;;;;;;92.65;50.63;;;4.30;86.10;;;;;;5006668;28;20022;-85
2022/01/22 11:02:17;;;;;;;89.72;48.28;;;4.30;85.60;;;;;;5013611;28;20034;-85
2022/01/22 11:04:44;;;;;;;75.72;41.70;;;4.60;85.50;;;;;;5008729;28;20064;-86
2022/01/22 11:07:16;;;;;;;99.95;55.17;;;4.90;84.40;;;;;;5008547;28;20029;-85
2022/01/22 11:09:43;;;;;;;104.40;58.25;;;5.10;82.40;;;;;;5023982;28;20100;-85
2022/01/22 11:12:09;;;;;;;124.65;67.20;;;5.10;81.90;;;;;;5008060;28;20393;-85
2022/01/22 11:14:37;;;;;;;111.72;58.15;;;5.00;82.10;;;;;;5033032;28;20041;-84
2022/01/22 11:17:08;;;;;;;110.07;59.10;;;4.90;83.00;;;;;;5026731;28;20060;-84
2022/01/22 11:19:36;;;;;;;109.43;59.67;;;5.00;82.80;;;;;;5015781;28;20049;-83
2022/01/22 11:22:13;;;;;;;99.25;54.95;;;5.30;82.10;;;;;;5033209;28;20030;-84
2022/01/22 11:24:43;;;;;;;106.57;59.42;;;5.30;81.30;;;;;;5035157;28;20065;-84
2022/01/22 11:27:11;;;;;;;99.60;53.53;;;5.40;81.60;;;;;;5034672;28;20466;-84
2022/01/22 11:29:57;;;;;;;94.45;55.70;;;5.60;80.80;;;;;;5016946;28;20083;-84
2022/01/22 11:32:29;;;;;;;91.10;52.42;;;5.70;80.10;;;;;;5017610;28;20041;-84
2022/01/22 11:35:03;;;;;;;99.45;52.10;;;5.70;79.30;;;;;;5034413;28;20500;-84
2022/01/22 11:37:43;;;;;;;108.05;61.67;;;5.80;79.40;;;;;;5034182;28;20132;-84
2022/01/22 11:40:18;;;;;;;123.23;71.37;;;5.70;79.80;;;;;;5034962;28;20037;-84
2022/01/22 11:42:57;;;;;;;77.03;44.53;;;5.70;79.60;;;;;;5033730;28;20280;-83
2022/01/22 11:45:27;;;;;;;115.32;67.28;;;6.00;81.10;;;;;;5014908;28;20054;-84
2022/01/22 11:48:12;;;;;;;100.73;59.30;;;6.20;78.00;;;;;;4997060;28;20034;-84
2022/01/22 11:50:39;;;;;;;105.15;61.28;;;6.40;77.10;;;;;;5014621;28;20379;-84
2022/01/22 11:53:29;;;;;;;88.18;53.15;;;6.50;76.50;;;;;;5028302;28;20033;-84
2022/01/22 11:56:14;;;;;;;77.85;47.70;;;6.70;76.40;;;;;;5014556;28;20421;-84
2022/01/22 11:58:59;;;;;;;123.97;73.65;;;7.20;76.30;;;;;;5004669;28;20045;-84
2022/01/22 12:01:45;;;;;;;118.57;73.32;;;7.10;73.50;;;;;;5042647;28;20703;-84
2022/01/22 12:04:16;;;;;;;104.63;64.32;;;6.80;74.70;;;;;;5034319;28;20160;-84
2022/01/22 12:07:00;;;;;;;106.82;67.35;;;7.20;73.60;;;;;;5034261;28;20044;-84
2022/01/22 12:09:30;;;;;;;92.40;60.05;;;7.60;72.20;;;;;;5034765;28;20044;-84
2022/01/22 12:14:57;;;;;;;92.55;59.88;;;8.60;68.70;;;;;;5034361;28;20503;-82
2022/01/22 12:17:49;;;;;;;108.88;68.75;;;9.30;66.00;;;;;;5014145;28;20038;-83
2022/01/22 12:20:45;;;;;;;86.57;55.25;;;8.90;65.40;;;;;;5032831;28;20553;-83
2022/01/22 12:23:19;;;;;;;104.00;67.03;;;9.30;66.10;;;;;;5033912;28;20034;-83
2022/01/22 12:25:45;;;;;;;99.70;65.38;;;9.60;64.20;;;;;;5014589;28;20029;-83
2022/01/22 12:28:13;;;;;;;94.22;60.63;;;9.60;64.40;;;;;;5023096;28;20033;-82
2022/01/22 12:30:48;;;;;;;102.68;68.85;;;9.50;65.50;;;;;;5030822;28;20053;-82
2022/01/22 12:33:35;;;;;;;97.03;61.92;;;9.70;63.80;;;;;;5022689;28;20519;-83
2022/01/22 12:36:04;;;;;;;92.90;62.03;;;9.50;64.30;;;;;;5020785;28;20038;-84
2022/01/22 12:41:33;;;;;;;96.55;64.15;;;10.20;62.80;;;;;;5027800;28;20044;-85
2022/01/22 12:46:57;;;;;;;92.20;62.90;;;10.20;61.80;;;;;;5023286;28;20030;-82
2022/01/22 12:49:24;;;;;;;85.15;57.88;;;10.10;60.90;;;;;;5020887;28;20042;-81
2022/01/22 12:52:00;;;;;;;85.03;57.35;;;10.10;61.00;;;;;;5023059;28;20161;-81
2022/01/22 12:54:27;;;;;;;87.10;59.15;;;9.80;61.40;;;;;;5022206;28;20041;-81
2022/01/22 12:57:05;;;;;;;77.75;52.78;;;9.20;62.60;;;;;;5005673;28;20034;-81
2022/01/22 12:59:34;;;;;;;62.65;44.60;;;8.80;63.60;;;;;;5022981;28;20041;-81
2022/01/22 13:02:00;;;;;;;71.70;50.30;;;9.10;64.80;;;;;;5004832;28;20032;-81
2022/01/22 13:04:26;;;;;;;85.68;58.45;;;9.50;63.20;;;;;;5023413;28;20092;-82
2022/01/22 13:06:53;;;;;;;91.38;61.33;;;9.70;63.20;;;;;;5028380;28;20033;-82
2022/01/22 13:09:19;;;;;;;91.03;63.50;;;9.80;62.10;;;;;;5035623;28;20136;-84
2022/01/22 13:11:52;;;;;;;89.45;60.83;;;9.40;63.30;;;;;;5037120;28;20025;-84
2022/01/22 13:14:30;;;;;;;85.53;58.45;;;9.40;63.70;;;;;;5035864;28;20532;-84
2022/01/22 13:16:56;;;;;;;87.97;59.90;;;9.30;63.70;;;;;;5035844;28;20423;-83
2022/01/22 13:19:23;;;;;;;81.60;54.47;;;9.60;62.70;;;;;;5019591;28;20044;-83
2022/01/22 13:21:58;;;;;;;89.40;62.15;;;9.70;61.90;;;;;;5036884;28;20470;-83
2022/01/22 13:24:26;;;;;;;82.88;57.35;;;9.60;60.80;;;;;;5037502;28;20045;-83
2022/01/22 13:27:03;;;;;;;85.55;57.88;;;9.30;62.20;;;;;;5037083;28;20044;-83
2022/01/22 13:29:33;;;;;;;78.57;52.95;;;9.10;63.30;;;;;;5036464;28;20045;-83
2022/01/22 13:32:19;;;;;;;79.35;55.65;;;9.30;62.90;;;;;;5036919;28;20038;-83
2022/01/22 13:35:07;;;;;;;79.25;53.97;;;9.40;62.20;;;;;;5036990;28;20041;-83
2022/01/22 13:48:27;;;;;;;56.38;38.97;;;7.80;65.80;;;;;;5026155;28;20123;-84
2022/01/22 13:50:53;;;;;;;57.35;40.33;;;8.00;65.50;;;;;;5008795;28;20124;-84
2022/01/22 13:53:19;;;;;;;60.53;43.47;;;8.00;64.30;;;;;;5026192;28;20440;-84
2022/01/22 13:55:59;;;;;;;52.97;36.97;;;7.90;64.20;;;;;;5026068;28;20109;-84
2022/01/22 13:58:25;;;;;;;69.10;48.40;;;8.00;64.60;;;;;;5026139;28;20160;-84
2022/01/22 14:00:51;;;;;;;63.65;43.53;;;7.70;63.80;;;;;;5023622;28;20487;-84
2022/01/22 14:06:02;;;;;;;51.97;34.42;;;7.60;64.70;;;;;;5036648;28;20092;-84
2022/01/22 14:08:32;;;;;;;45.00;29.52;;;7.70;64.10;;;;;;5018447;28;20454;-84
2022/01/22 14:11:07;;;;;;;58.08;38.15;;;7.80;63.80;;;;;;5018308;28;20038;-84
2022/01/22 14:13:34;;;;;;;42.38;30.23;;;7.80;61.50;;;;;;5018496;28;20398;-84
2022/01/22 14:16:21;;;;;;;35.90;24.80;;;7.50;60.70;;;;;;5018588;28;20048;-84
2022/01/22 14:18:48;;;;;;;40.10;30.48;;;7.60;61.30;;;;;;5027207;28;20129;-84
2022/01/22 14:21:20;;;;;;;40.42;28.85;;;7.60;60.40;;;;;;5023191;28;20041;-84
2022/01/22 14:23:50;;;;;;;38.25;24.58;;;7.40;60.90;;;;;;5018483;28;20038;-83
2022/01/22 14:26:28;;;;;;;39.88;28.27;;;7.20;61.30;;;;;;5021527;28;20083;-83
2022/01/22 14:28:58;;;;;;;36.88;25.92;;;7.20;61.50;;;;;;5011458;28;20576;-84
2022/01/22 14:31:47;;;;;;;37.45;26.88;;;7.20;61.10;;;;;;5026900;28;20565;-84
2022/01/22 14:34:33;;;;;;;37.55;27.90;;;7.20;61.40;;;;;;4999685;28;20038;-83
2022/01/22 14:36:59;;;;;;;30.50;21.20;;;7.10;61.90;;;;;;5015703;28;20116;-84
2022/01/22 14:43:48;;;;;;;27.42;19.42;;;7.20;62.60;;;;;;5015014;28;20029;-84
2022/01/22 14:45:09;;;;;;;39.15;26.70;;;7.60;62.00;;;;;;5029100;28;20096;-83
2022/01/22 14:47:35;;;;;;;34.22;22.15;;;7.50;62.40;;;;;;5036530;28;20424;-83
2022/01/22 14:50:08;;;;;;;32.40;22.83;;;7.70;62.60;;;;;;5035341;28;20102;-84
2022/01/22 14:52:34;;;;;;;44.42;31.25;;;7.90;62.10;;;;;;5035420;28;20048;-83
2022/01/22 14:55:07;;;;;;;46.67;27.45;;;7.90;62.00;;;;;;5035141;28;20116;-84
2022/01/22 14:57:35;;;;;;;35.10;24.65;;;7.70;62.60;;;;;;5016814;28;20105;-83
2022/01/22 15:00:06;;;;;;;32.78;24.33;;;7.70;63.10;;;;;;5035119;28;20079;-83
2022/01/22 15:02:36;;;;;;;32.90;22.73;;;7.80;63.50;;;;;;5017617;28;20037;-83
2022/01/22 15:05:03;;;;;;;42.92;29.58;;;8.00;62.90;;;;;;5034677;28;20442;-81
2022/01/22 15:07:29;;;;;;;33.33;23.65;;;8.00;62.90;;;;;;5034873;28;20033;-83
2022/01/22 15:09:55;;;;;;;38.17;25.58;;;8.10;63.30;;;;;;5036042;28;20481;-83
2022/01/22 15:12:21;;;;;;;41.88;27.85;;;8.20;62.70;;;;;;5035266;28;20037;-83
2022/01/22 15:14:48;;;;;;;57.05;39.58;;;8.20;63.30;;;;;;5035375;28;20124;-84
2022/01/22 15:19:48;;;;;;;43.97;27.83;;;7.80;64.10;;;;;;5035833;28;20382;-83
2022/01/22 15:22:17;;;;;;;46.28;31.20;;;7.90;64.60;;;;;;5025710;28;20548;-83
2022/01/22 15:24:44;;;;;;;54.58;38.13;;;7.80;64.60;;;;;;5034457;28;20112;-84
2022/01/22 15:27:13;;;;;;;58.75;41.60;;;7.80;65.10;;;;;;5033996;28;20507;-84
2022/01/22 15:34:59;;;;;;;47.78;32.78;;;7.40;66.70;;;;;;5034886;28;20497;-83
2022/01/22 15:37:25;;;;;;;57.83;38.65;;;7.40;67.00;;;;;;5033658;28;20075;-83
2022/01/22 15:39:51;;;;;;;68.93;47.20;;;7.40;67.20;;;;;;5016010;28;20052;-84
2022/01/22 15:42:17;;;;;;;61.50;39.45;;;7.20;67.20;;;;;;5030366;28;20025;-85
2022/01/22 15:44:43;;;;;;;43.95;30.63;;;7.20;67.90;;;;;;5025652;28;20478;-84
2022/01/22 15:47:09;;;;;;;43.83;30.35;;;7.20;67.80;;;;;;5013608;28;20033;-83
2022/01/22 15:49:35;;;;;;;44.17;30.65;;;7.30;67.90;;;;;;5029472;28;20107;-83
2022/01/22 15:52:01;;;;;;;43.55;30.83;;;7.40;68.00;;;;;;5032833;28;20532;-83
2022/01/22 15:54:28;;;;;;;49.50;33.65;;;7.40;68.20;;;;;;5034518;28;20052;-83
2022/01/22 15:56:54;;;;;;;54.50;35.90;;;7.40;68.30;;;;;;5011558;28;20034;-84
2022/01/22 15:59:22;;;;;;;50.97;33.45;;;7.50;67.70;;;;;;5031279;28;20045;-83
2022/01/22 16:01:52;;;;;;;45.20;32.30;;;7.40;68.30;;;;;;5016785;28;20045;-83
2022/01/22 16:04:19;;;;;;;49.13;33.65;;;7.40;68.70;;;;;;5034363;28;20034;-83
2022/01/22 16:09:25;;;;;;;47.17;32.33;;;7.30;68.40;;;;;;5018369;28;20038;-85
2022/01/22 16:11:59;;;;;;;51.80;36.33;;;7.30;69.10;;;;;;5024288;28;20117;-85
2022/01/22 16:14:28;;;;;;;44.85;29.55;;;7.30;68.90;;;;;;5034643;28;20528;-85
2022/01/22 16:16:57;;;;;;;56.58;39.70;;;7.30;69.50;;;;;;5034377;28;20041;-84
2022/01/22 16:19:23;;;;;;;60.20;39.45;;;7.20;68.90;;;;;;5026894;28;21787;-85
2022/01/22 16:21:49;;;;;;;68.43;43.60;;;7.20;69.30;;;;;;5032735;28;20033;-86
2022/01/22 16:24:15;;;;;;;48.30;33.90;;;7.20;69.40;;;;;;5032993;28;20531;-87
2022/01/22 16:26:42;;;;;;;46.85;31.02;;;7.10;69.50;;;;;;5031497;28;20033;-88
2022/01/22 16:29:08;;;;;;;47.78;33.67;;;7.20;69.70;;;;;;5031015;28;20061;-84
2022/01/22 16:31:35;;;;;;;63.03;39.38;;;7.20;70.00;;;;;;5016129;28;20037;-87
2022/01/22 16:34:04;;;;;;;57.78;38.08;;;7.20;69.90;;;;;;5034478;28;20116;-87
2022/01/22 16:36:52;;;;;;;49.58;32.90;;;7.10;70.30;;;;;;5018094;28;20060;-83
2022/01/22 16:39:27;;;;;;;58.13;39.47;;;7.20;70.70;;;;;;5032913;28;20225;-86
2022/01/22 16:42:07;;;;;;;57.25;37.40;;;7.10;70.30;;;;;;5019544;28;20048;-86
2022/01/22 16:58:08;;;;;;;55.42;38.15;;;6.80;71.60;;;;;;5032896;28;20034;-86
2022/01/22 17:00:39;;;;;;;61.03;39.85;;;6.80;71.60;;;;;;5006453;28;20485;-85
2022/01/22 17:03:08;;;;;;;;;;;6.80;71.70;;;;;;5032930;28;20060;-88
2022/01/22 17:05:40;;;;;;;57.05;37.45;;;6.90;72.10;;;;;;5028092;28;19963;-86
2022/01/22 17:08:27;;;;;;;58.35;38.40;;;6.80;71.60;;;;;;5026498;28;20053;-87
2022/01/22 17:11:08;;;;;;;53.60;35.22;;;6.80;71.90;;;;;;5014117;28;20029;-86
2022/01/22 17:16:20;;;;;;;47.67;30.73;;;6.70;72.00;;;;;;5027500;28;20068;-85
2022/01/22 17:18:46;;;;;;;40.50;28.13;;;6.80;72.20;;;;;;5007741;28;20398;-82
2022/01/22 17:21:12;;;;;;;41.28;26.95;;;6.90;71.60;;;;;;5009013;28;20045;-83
2022/01/22 17:23:37;;;;;;;46.28;28.70;;;7.00;71.40;;;;;;5008900;28;20041;-84
2022/01/22 17:26:03;;;;;;;35.47;25.02;;;7.10;71.00;;;;;;5025199;28;20053;-84
2022/01/22 17:28:30;;;;;;;43.25;28.25;;;7.10;71.30;;;;;;5033224;28;20112;-85
2022/01/22 17:30:56;;;;;;;56.05;36.60;;;7.10;70.80;;;;;;5013294;28;20129;-85
2022/01/22 17:33:22;;;;;;;51.22;34.30;;;7.10;70.80;;;;;;5027061;28;20052;-86
2022/01/22 17:35:50;;;;;;;51.30;32.78;;;7.00;71.10;;;;;;5009486;28;20050;-87
2022/01/22 17:38:16;;;;;;;52.17;34.75;;;6.90;71.60;;;;;;5027617;28;20071;-87
2022/01/22 17:40:44;;;;;;;48.45;32.33;;;6.80;72.20;;;;;;5007505;28;20087;-88
2022/01/22 17:43:11;;;;;;;54.25;35.33;;;6.80;72.40;;;;;;5009477;28;20091;-86
2022/01/22 17:45:47;;;;;;;47.05;32.45;;;6.80;72.80;;;;;;5030361;28;20022;-85
2022/01/22 17:48:17;;;;;;;49.15;33.50;;;6.80;73.40;;;;;;5009624;28;20502;-86
2022/01/22 17:50:43;;;;;;;53.47;35.00;;;6.70;73.60;;;;;;5029288;28;20037;-86
2022/01/22 17:53:09;;;;;;;45.83;31.88;;;6.50;74.20;;;;;;5011066;28;20042;-85
2022/01/22 17:55:35;;;;;;;52.40;32.75;;;6.50;74.50;;;;;;5008063;28;20091;-85
2022/01/22 17:58:01;;;;;;;52.55;34.33;;;6.50;74.90;;;;;;5034527;28;20064;-82
2022/01/22 18:00:26;;;;;;;52.25;35.47;;;6.50;75.20;;;;;;5032512;28;20505;-84
2022/01/22 18:02:52;;;;;;;67.75;44.50;;;6.40;75.60;;;;;;5033169;28;20033;-84
2022/01/22 18:05:18;;;;;;;54.70;36.63;;;6.30;76.20;;;;;;5032187;28;20041;-84
2022/01/22 18:07:44;;;;;;;52.72;33.70;;;6.10;77.10;;;;;;5031683;28;20037;-84
2022/01/22 18:10:10;;;;;;;53.35;34.08;;;6.20;77.00;;;;;;5006941;28;20041;-84
2022/01/22 18:12:35;;;;;;;54.75;36.17;;;6.10;77.60;;;;;;5028113;28;20096;-83
2022/01/22 18:15:02;;;;;;;56.08;36.40;;;6.10;77.20;;;;;;5011179;28;20074;-84
2022/01/22 18:17:28;;;;;;;53.50;34.42;;;6.20;77.50;;;;;;5024554;28;20062;-84
2022/01/22 18:19:54;;;;;;;53.92;34.78;;;6.10;77.70;;;;;;5007871;28;20129;-84
2022/01/22 18:22:20;;;;;;;48.63;33.42;;;6.10;77.70;;;;;;5025895;28;20561;-85
2022/01/22 18:24:47;;;;;;;48.60;31.38;;;6.10;77.80;;;;;;5025430;28;20041;-89
2022/01/22 18:27:12;;;;;;;54.47;35.05;;;6.10;77.70;;;;;;5014225;28;20041;-89
2022/01/22 18:29:38;;;;;;;68.85;44.90;;;6.10;78.00;;;;;;5030074;28;20029;-88
2022/01/22 18:32:06;;;;;;;52.55;35.60;;;6.00;77.70;;;;;;5028174;28;20060;-90
2022/01/22 18:34:35;;;;;;;50.08;33.58;;;5.90;78.70;;;;;;5008792;28;20029;-89
2022/01/22 18:37:05;;;;;;;63.85;42.45;;;6.00;78.60;;;;;;5012231;28;20143;-89
2022/01/22 18:39:31;;;;;;;49.83;32.22;;;5.80;78.90;;;;;;5008700;28;20033;-89
2022/01/22 18:41:57;;;;;;;49.28;32.55;;;5.90;78.70;;;;;;5014185;28;20091;-89
2022/01/22 18:44:24;;;;;;;66.88;41.67;;;6.00;78.30;;;;;;5010136;28;20129;-89
2022/01/22 18:46:53;;;;;;;54.78;35.25;;;5.90;78.30;;;;;;5006024;28;20120;-89
2022/01/22 18:49:22;;;;;;;55.30;36.70;;;5.90;79.00;;;;;;5024604;28;20037;-89
2022/01/22 18:52:01;;;;;;;55.30;36.00;;;5.90;78.80;;;;;;5010468;28;20033;-89
2022/01/22 18:54:27;;;;;;;51.05;32.60;;;6.00;79.00;;;;;;5032750;28;20026;-90
2022/01/22 18:56:54;;;;;;;46.60;31.30;;;6.00;78.80;;;;;;5028424;28;20084;-88
2022/01/22 18:59:19;;;;;;;50.63;32.63;;;6.00;78.90;;;;;;5014304;28;20072;-87
2022/01/22 19:01:45;;;;;;;48.60;30.80;;;6.00;78.80;;;;;;5034731;28;20132;-88
2022/01/22 19:04:15;;;;;;;77.55;46.20;;;6.10;78.90;;;;;;5034325;28;20158;-87
2022/01/22 19:06:41;;;;;;;63.80;39.65;;;5.90;79.30;;;;;;5016339;28;20401;-87
2022/01/22 19:09:08;;;;;;;56.63;35.13;;;5.90;79.60;;;;;;5015472;28;20033;-86
2022/01/22 19:11:34;;;;;;;70.85;42.47;;;5.90;79.70;;;;;;5033262;28;20034;-87
2022/01/22 19:13:59;;;;;;;58.60;37.53;;;5.90;79.80;;;;;;5014443;28;20571;-87
2022/01/22 19:16:25;;;;;;;62.70;37.47;;;5.90;80.20;;;;;;5033639;28;20183;-87
2022/01/22 19:18:51;;;;;;;59.13;36.58;;;5.90;79.60;;;;;;5033554;28;20030;-84
2022/01/22 19:21:22;;;;;;;55.58;34.60;;;5.90;79.80;;;;;;5032821;28;20049;-85
2022/01/22 19:24:02;;;;;;;83.03;50.22;;;6.00;79.80;;;;;;5028453;28;20041;-85
2022/01/22 19:29:02;;;;;;;63.15;37.95;;;5.90;79.90;;;;;;5029420;28;20035;-84
2022/01/22 19:31:28;;;;;;;55.10;32.78;;;5.90;80.00;;;;;;5023860;28;20456;-86
2022/01/22 19:33:57;;;;;;;55.97;34.30;;;6.00;79.80;;;;;;5018641;28;20493;-86
2022/01/22 19:36:23;;;;;;;52.97;33.63;;;6.00;79.80;;;;;;5024354;28;20046;-85
2022/01/22 19:38:49;;;;;;;50.10;31.60;;;6.00;79.80;;;;;;5027021;28;20437;-85
2022/01/22 19:41:23;;;;;;;55.58;34.42;;;6.00;79.60;;;;;;5013952;28;20041;-84
2022/01/22 19:43:48;;;;;;;46.20;29.80;;;6.00;79.90;;;;;;5025131;28;20029;-85
2022/01/22 19:46:16;;;;;;;57.30;37.42;;;6.00;79.80;;;;;;5021956;28;20498;-85
2022/01/22 19:48:45;;;;;;;55.55;34.67;;;5.90;79.90;;;;;;5020896;28;20044;-85
2022/01/22 19:51:10;;;;;;;50.88;31.90;;;5.80;80.30;;;;;;5020169;28;20053;-85
2022/01/22 19:53:36;;;;;;;67.55;40.95;;;5.90;80.30;;;;;;5013421;28;20033;-85
2022/01/22 19:56:02;;;;;;;54.42;33.72;;;5.80;80.60;;;;;;5026133;28;20851;-86
2022/01/22 19:58:29;;;;;;;53.60;31.90;;;5.90;80.70;;;;;;5013558;28;20113;-85
2022/01/22 20:00:55;;;;;;;51.75;31.65;;;5.90;80.60;;;;;;5032423;28;20044;-86
2022/01/22 20:03:20;;;;;;;52.67;31.73;;;5.90;80.60;;;;;;5031815;28;20034;-86
2022/01/22 20:05:46;;;;;;;51.58;32.80;;;5.90;80.60;;;;;;5026874;28;20064;-83
2022/01/22 20:08:19;;;;;;;54.22;34.45;;;5.90;80.80;;;;;;5015500;28;20087;-83
2022/01/22 20:10:47;;;;;;;60.20;36.92;;;6.00;80.80;;;;;;5017934;28;20044;-85
2022/01/22 20:13:16;;;;;;;54.83;33.63;;;6.00;80.90;;;;;;5017128;28;20085;-84
2022/01/22 20:15:42;;;;;;;50.20;32.20;;;5.90;80.80;;;;;;5018230;28;20094;-85
2022/01/22 20:18:08;;;;;;;52.55;33.28;;;5.90;81.10;;;;;;5034718;28;20506;-84
2022/01/22 20:20:33;;;;;;;61.65;33.95;;;6.00;80.90;;;;;;5019507;28;20068;-84
2022/01/22 20:23:00;;;;;;;53.90;33.85;;;6.00;81.00;;;;;;5036508;28;20235;-84
2022/01/22 20:25:25;;;;;;;53.05;32.97;;;6.00;80.80;;;;;;5037676;28;20060;-84
2022/01/22 20:27:51;;;;;;;60.65;38.33;;;6.00;80.90;;;;;;5019183;28;20034;-84
2022/01/22 20:30:17;;;;;;;59.13;36.70;;;6.00;80.80;;;;;;5037015;28;20041;-84
2022/01/22 20:32:46;;;;;;;66.00;41.03;;;6.00;81.10;;;;;;5037844;28;20053;-84
2022/01/22 20:35:16;;;;;;;60.95;36.13;;;5.90;81.10;;;;;;5037768;28;20040;-84
2022/01/22 20:37:42;;;;;;;53.07;33.63;;;5.90;81.40;;;;;;5038471;28;20387;-84
2022/01/22 20:40:09;;;;;;;59.33;34.28;;;5.90;81.40;;;;;;5020042;28;20125;-84
2022/01/22 20:42:35;;;;;;;56.28;35.33;;;5.90;81.70;;;;;;5020170;28;20046;-84
2022/01/22 20:45:03;;;;;;;55.83;33.72;;;5.90;81.50;;;;;;5037329;28;20040;-84
2022/01/22 20:47:29;;;;;;;58.67;36.28;;;5.90;81.50;;;;;;5037212;28;20029;-84
2022/01/22 20:49:55;;;;;;;56.92;35.03;;;5.90;81.50;;;;;;5036328;28;20025;-84